sensor_id;sensor_type;location;lat;lon;timestamp;P1;durP1;ratioP1;P2;durP2;ratioP2
23567;SDS011;11962;50.838;4.430;2023-03-11T00:00:47;11.65;;;3.03;;
23567;SDS011;11962;50.838;4.430;2023-03-11T00:03:14;11.10;;;2.88;;
23567;SDS011;11962;50.838;4.430;2023-03-11T00:05:42;6.57;;;2.63;;
23567;SDS011;11962;50.838;4.430;2023-03-11T00:08:14;8.90;;;2.90;;
23567;SDS011;11962;50.838;4.430;2023-03-11T00:10:42;8.50;;;2.92;;
23567;SDS011;11962;50.838;4.430;2023-03-11T00:13:10;10.00;;;3.03;;
23567;SDS011;11962;50.838;4.430;2023-03-11T00:15:39;8.63;;;3.15;;
23567;SDS011;11962;50.838;4.430;2023-03-11T00:20:33;5.38;;;2.42;;
23567;SDS011;11962;50.838;4.430;2023-03-11T00:23:00;9.68;;;2.78;;
23567;SDS011;11962;50.838;4.430;2023-03-11T00:25:28;7.85;;;2.30;;
23567;SDS011;11962;50.838;4.430;2023-03-11T00:27:55;5.15;;;2.45;;
23567;SDS011;11962;50.838;4.430;2023-03-11T00:30:22;10.40;;;2.70;;
23567;SDS011;11962;50.838;4.430;2023-03-11T00:32:49;11.90;;;2.63;;
23567;SDS011;11962;50.838;4.430;2023-03-11T00:35:17;8.10;;;2.50;;
23567;SDS011;11962;50.838;4.430;2023-03-11T00:37:46;8.05;;;2.42;;
23567;SDS011;11962;50.838;4.430;2023-03-11T00:40:14;8.48;;;2.78;;
23567;SDS011;11962;50.838;4.430;2023-03-11T00:42:42;9.30;;;2.67;;
23567;SDS011;11962;50.838;4.430;2023-03-11T00:45:08;6.18;;;2.20;;
23567;SDS011;11962;50.838;4.430;2023-03-11T00:47:34;6.88;;;2.53;;
23567;SDS011;11962;50.838;4.430;2023-03-11T00:49:59;6.07;;;2.25;;
23567;SDS011;11962;50.838;4.430;2023-03-11T00:52:25;8.50;;;2.35;;
23567;SDS011;11962;50.838;4.430;2023-03-11T00:54:52;9.38;;;2.42;;
23567;SDS011;11962;50.838;4.430;2023-03-11T00:57:19;12.77;;;2.63;;
23567;SDS011;11962;50.838;4.430;2023-03-11T00:59:44;9.57;;;2.47;;
23567;SDS011;11962;50.838;4.430;2023-03-11T01:02:10;10.70;;;2.47;;
23567;SDS011;11962;50.838;4.430;2023-03-11T01:04:37;6.88;;;2.13;;
23567;SDS011;11962;50.838;4.430;2023-03-11T01:07:02;10.98;;;2.17;;
23567;SDS011;11962;50.838;4.430;2023-03-11T01:09:28;11.38;;;2.58;;
23567;SDS011;11962;50.838;4.430;2023-03-11T01:11:54;5.20;;;2.42;;
23567;SDS011;11962;50.838;4.430;2023-03-11T01:14:19;14.55;;;2.90;;
23567;SDS011;11962;50.838;4.430;2023-03-11T01:16:45;7.95;;;2.40;;
23567;SDS011;11962;50.838;4.430;2023-03-11T01:19:11;6.15;;;2.35;;
23567;SDS011;11962;50.838;4.430;2023-03-11T01:21:37;7.00;;;3.10;;
23567;SDS011;11962;50.838;4.430;2023-03-11T01:27:03;4.28;;;2.20;;
23567;SDS011;11962;50.838;4.430;2023-03-11T01:29:28;6.85;;;2.40;;
23567;SDS011;11962;50.838;4.430;2023-03-11T01:31:54;6.88;;;2.75;;
23567;SDS011;11962;50.838;4.430;2023-03-11T01:34:20;8.75;;;2.78;;
23567;SDS011;11962;50.838;4.430;2023-03-11T01:36:46;12.98;;;2.90;;
23567;SDS011;11962;50.838;4.430;2023-03-11T01:39:11;13.45;;;3.45;;
23567;SDS011;11962;50.838;4.430;2023-03-11T01:41:37;10.65;;;3.70;;
23567;SDS011;11962;50.838;4.430;2023-03-11T01:44:03;7.90;;;3.30;;
23567;SDS011;11962;50.838;4.430;2023-03-11T01:49:16;8.57;;;2.88;;
23567;SDS011;11962;50.838;4.430;2023-03-11T01:51:43;14.60;;;3.17;;
23567;SDS011;11962;50.838;4.430;2023-03-11T01:54:15;10.15;;;3.10;;
23567;SDS011;11962;50.838;4.430;2023-03-11T01:56:44;13.52;;;3.63;;
23567;SDS011;11962;50.838;4.430;2023-03-11T01:59:11;9.40;;;3.13;;
23567;SDS011;11962;50.838;4.430;2023-03-11T02:01:45;11.23;;;3.22;;
23567;SDS011;11962;50.838;4.430;2023-03-11T02:04:18;14.52;;;3.42;;
23567;SDS011;11962;50.838;4.430;2023-03-11T02:06:46;7.78;;;3.00;;
23567;SDS011;11962;50.838;4.430;2023-03-11T02:09:21;12.77;;;3.50;;
23567;SDS011;11962;50.838;4.430;2023-03-11T02:11:48;8.55;;;3.17;;
23567;SDS011;11962;50.838;4.430;2023-03-11T02:14:15;15.48;;;3.47;;
23567;SDS011;11962;50.838;4.430;2023-03-11T02:16:41;10.25;;;3.50;;
23567;SDS011;11962;50.838;4.430;2023-03-11T02:19:17;17.02;;;3.88;;
23567;SDS011;11962;50.838;4.430;2023-03-11T02:22:03;7.70;;;2.85;;
23567;SDS011;11962;50.838;4.430;2023-03-11T02:27:23;10.55;;;3.60;;
23567;SDS011;11962;50.838;4.430;2023-03-11T02:29:51;12.25;;;3.70;;
23567;SDS011;11962;50.838;4.430;2023-03-11T02:32:18;8.77;;;3.00;;
23567;SDS011;11962;50.838;4.430;2023-03-11T02:34:44;10.90;;;3.15;;
23567;SDS011;11962;50.838;4.430;2023-03-11T02:37:11;7.07;;;3.30;;
23567;SDS011;11962;50.838;4.430;2023-03-11T02:39:41;14.63;;;3.58;;
23567;SDS011;11962;50.838;4.430;2023-03-11T02:42:12;13.43;;;2.97;;
23567;SDS011;11962;50.838;4.430;2023-03-11T02:44:58;8.93;;;3.25;;
23567;SDS011;11962;50.838;4.430;2023-03-11T02:47:46;9.13;;;3.20;;
23567;SDS011;11962;50.838;4.430;2023-03-11T02:50:14;10.65;;;3.13;;
23567;SDS011;11962;50.838;4.430;2023-03-11T02:52:41;9.45;;;2.70;;
23567;SDS011;11962;50.838;4.430;2023-03-11T02:55:07;16.20;;;3.58;;
23567;SDS011;11962;50.838;4.430;2023-03-11T02:57:36;9.90;;;3.22;;
23567;SDS011;11962;50.838;4.430;2023-03-11T03:00:02;6.80;;;3.08;;
23567;SDS011;11962;50.838;4.430;2023-03-11T03:02:39;24.15;;;4.18;;
23567;SDS011;11962;50.838;4.430;2023-03-11T03:05:05;11.00;;;3.92;;
23567;SDS011;11962;50.838;4.430;2023-03-11T03:07:32;9.30;;;3.10;;
23567;SDS011;11962;50.838;4.430;2023-03-11T03:09:58;12.43;;;3.40;;
23567;SDS011;11962;50.838;4.430;2023-03-11T03:12:23;10.98;;;3.38;;
23567;SDS011;11962;50.838;4.430;2023-03-11T03:14:49;11.65;;;3.45;;
23567;SDS011;11962;50.838;4.430;2023-03-11T03:17:15;9.18;;;3.25;;
23567;SDS011;11962;50.838;4.430;2023-03-11T03:19:41;9.27;;;3.50;;
23567;SDS011;11962;50.838;4.430;2023-03-11T03:22:07;9.43;;;2.90;;
23567;SDS011;11962;50.838;4.430;2023-03-11T03:24:33;10.02;;;3.10;;
23567;SDS011;11962;50.838;4.430;2023-03-11T03:26:58;12.63;;;3.25;;
23567;SDS011;11962;50.838;4.430;2023-03-11T03:29:24;12.90;;;3.75;;
23567;SDS011;11962;50.838;4.430;2023-03-11T03:31:50;9.55;;;2.97;;
23567;SDS011;11962;50.838;4.430;2023-03-11T03:34:15;9.30;;;2.70;;
23567;SDS011;11962;50.838;4.430;2023-03-11T03:36:41;9.68;;;3.05;;
23567;SDS011;11962;50.838;4.430;2023-03-11T03:39:07;8.52;;;2.80;;
23567;SDS011;11962;50.838;4.430;2023-03-11T03:41:33;6.40;;;2.50;;
23567;SDS011;11962;50.838;4.430;2023-03-11T03:43:58;8.38;;;2.63;;
23567;SDS011;11962;50.838;4.430;2023-03-11T03:46:24;7.40;;;2.85;;
23567;SDS011;11962;50.838;4.430;2023-03-11T03:48:50;9.48;;;2.90;;
23567;SDS011;11962;50.838;4.430;2023-03-11T03:51:16;10.70;;;3.10;;
23567;SDS011;11962;50.838;4.430;2023-03-11T03:53:42;10.20;;;3.20;;
23567;SDS011;11962;50.838;4.430;2023-03-11T03:56:11;9.73;;;3.20;;
23567;SDS011;11962;50.838;4.430;2023-03-11T03:58:39;10.20;;;3.08;;
23567;SDS011;11962;50.838;4.430;2023-03-11T04:01:05;8.57;;;3.80;;
23567;SDS011;11962;50.838;4.430;2023-03-11T04:03:32;9.18;;;3.30;;
23567;SDS011;11962;50.838;4.430;2023-03-11T04:08:36;9.95;;;3.30;;
23567;SDS011;11962;50.838;4.430;2023-03-11T04:11:02;10.48;;;2.95;;
23567;SDS011;11962;50.838;4.430;2023-03-11T04:13:27;9.60;;;2.80;;
23567;SDS011;11962;50.838;4.430;2023-03-11T04:15:53;12.45;;;3.22;;
23567;SDS011;11962;50.838;4.430;2023-03-11T04:18:19;10.13;;;3.20;;
23567;SDS011;11962;50.838;4.430;2023-03-11T04:20:46;7.63;;;3.00;;
23567;SDS011;11962;50.838;4.430;2023-03-11T04:23:13;14.38;;;3.88;;
23567;SDS011;11962;50.838;4.430;2023-03-11T04:25:38;12.30;;;3.60;;
23567;SDS011;11962;50.838;4.430;2023-03-11T04:28:04;9.65;;;2.95;;
23567;SDS011;11962;50.838;4.430;2023-03-11T04:30:30;8.40;;;3.35;;
23567;SDS011;11962;50.838;4.430;2023-03-11T04:32:56;9.25;;;3.28;;
23567;SDS011;11962;50.838;4.430;2023-03-11T04:35:21;10.93;;;3.42;;
23567;SDS011;11962;50.838;4.430;2023-03-11T04:37:47;10.13;;;3.60;;
23567;SDS011;11962;50.838;4.430;2023-03-11T04:40:22;10.38;;;3.47;;
23567;SDS011;11962;50.838;4.430;2023-03-11T04:42:47;11.63;;;3.15;;
23567;SDS011;11962;50.838;4.430;2023-03-11T04:45:13;8.65;;;3.50;;
23567;SDS011;11962;50.838;4.430;2023-03-11T04:47:39;7.30;;;3.33;;
23567;SDS011;11962;50.838;4.430;2023-03-11T04:50:05;10.63;;;3.55;;
23567;SDS011;11962;50.838;4.430;2023-03-11T04:52:31;8.60;;;3.40;;
23567;SDS011;11962;50.838;4.430;2023-03-11T04:54:56;9.13;;;3.47;;
23567;SDS011;11962;50.838;4.430;2023-03-11T04:57:22;11.20;;;3.30;;
23567;SDS011;11962;50.838;4.430;2023-03-11T04:59:48;12.82;;;3.47;;
23567;SDS011;11962;50.838;4.430;2023-03-11T05:02:13;8.10;;;3.33;;
23567;SDS011;11962;50.838;4.430;2023-03-11T05:04:39;8.18;;;3.17;;
23567;SDS011;11962;50.838;4.430;2023-03-11T05:07:05;9.18;;;3.33;;
23567;SDS011;11962;50.838;4.430;2023-03-11T05:09:30;9.10;;;3.50;;
23567;SDS011;11962;50.838;4.430;2023-03-11T05:14:47;9.30;;;3.70;;
23567;SDS011;11962;50.838;4.430;2023-03-11T05:17:13;10.20;;;3.47;;
23567;SDS011;11962;50.838;4.430;2023-03-11T05:19:39;8.40;;;3.88;;
23567;SDS011;11962;50.838;4.430;2023-03-11T05:22:05;11.85;;;3.65;;
23567;SDS011;11962;50.838;4.430;2023-03-11T05:24:32;11.02;;;3.83;;
23567;SDS011;11962;50.838;4.430;2023-03-11T05:27:13;13.02;;;3.25;;
23567;SDS011;11962;50.838;4.430;2023-03-11T05:29:42;8.95;;;3.50;;
23567;SDS011;11962;50.838;4.430;2023-03-11T05:32:09;13.10;;;3.97;;
23567;SDS011;11962;50.838;4.430;2023-03-11T05:34:35;7.93;;;3.67;;
23567;SDS011;11962;50.838;4.430;2023-03-11T05:37:01;9.32;;;3.35;;
23567;SDS011;11962;50.838;4.430;2023-03-11T05:39:28;8.20;;;3.75;;
23567;SDS011;11962;50.838;4.430;2023-03-11T05:42:03;11.30;;;3.92;;
23567;SDS011;11962;50.838;4.430;2023-03-11T05:44:30;11.43;;;3.67;;
23567;SDS011;11962;50.838;4.430;2023-03-11T05:46:56;8.85;;;3.55;;
23567;SDS011;11962;50.838;4.430;2023-03-11T05:49:22;15.32;;;4.13;;
23567;SDS011;11962;50.838;4.430;2023-03-11T05:51:48;10.90;;;3.80;;
23567;SDS011;11962;50.838;4.430;2023-03-11T05:54:14;11.75;;;4.60;;
23567;SDS011;11962;50.838;4.430;2023-03-11T05:56:46;11.18;;;3.88;;
23567;SDS011;11962;50.838;4.430;2023-03-11T05:59:12;9.05;;;3.47;;
23567;SDS011;11962;50.838;4.430;2023-03-11T06:01:39;12.32;;;3.60;;
23567;SDS011;11962;50.838;4.430;2023-03-11T06:07:20;10.98;;;3.72;;
23567;SDS011;11962;50.838;4.430;2023-03-11T06:09:48;7.75;;;4.20;;
23567;SDS011;11962;50.838;4.430;2023-03-11T06:12:14;9.63;;;4.03;;
23567;SDS011;11962;50.838;4.430;2023-03-11T06:14:40;7.28;;;3.50;;
23567;SDS011;11962;50.838;4.430;2023-03-11T06:17:06;9.20;;;3.85;;
23567;SDS011;11962;50.838;4.430;2023-03-11T06:19:31;9.27;;;3.80;;
23567;SDS011;11962;50.838;4.430;2023-03-11T06:21:57;9.45;;;4.90;;
23567;SDS011;11962;50.838;4.430;2023-03-11T06:24:23;13.85;;;4.28;;
23567;SDS011;11962;50.838;4.430;2023-03-11T06:26:55;9.63;;;3.90;;
23567;SDS011;11962;50.838;4.430;2023-03-11T06:29:20;14.55;;;4.35;;
23567;SDS011;11962;50.838;4.430;2023-03-11T06:31:48;7.93;;;4.20;;
23567;SDS011;11962;50.838;4.430;2023-03-11T06:34:14;8.75;;;3.75;;
23567;SDS011;11962;50.838;4.430;2023-03-11T06:36:40;9.13;;;3.92;;
23567;SDS011;11962;50.838;4.430;2023-03-11T06:39:06;9.68;;;4.05;;
23567;SDS011;11962;50.838;4.430;2023-03-11T06:41:34;11.75;;;4.15;;
23567;SDS011;11962;50.838;4.430;2023-03-11T06:44:00;10.20;;;4.03;;
23567;SDS011;11962;50.838;4.430;2023-03-11T06:46:26;12.65;;;5.05;;
23567;SDS011;11962;50.838;4.430;2023-03-11T06:48:53;7.47;;;3.90;;
23567;SDS011;11962;50.838;4.430;2023-03-11T06:51:19;11.90;;;4.53;;
23567;SDS011;11962;50.838;4.430;2023-03-11T06:53:48;14.07;;;4.47;;
23567;SDS011;11962;50.838;4.430;2023-03-11T06:56:15;17.48;;;4.50;;
23567;SDS011;11962;50.838;4.430;2023-03-11T06:58:54;9.23;;;4.55;;
23567;SDS011;11962;50.838;4.430;2023-03-11T07:01:21;13.07;;;4.55;;
23567;SDS011;11962;50.838;4.430;2023-03-11T07:06:16;12.25;;;4.28;;
23567;SDS011;11962;50.838;4.430;2023-03-11T07:08:48;8.55;;;4.55;;
23567;SDS011;11962;50.838;4.430;2023-03-11T07:13:45;8.88;;;4.60;;
23567;SDS011;11962;50.838;4.430;2023-03-11T07:16:12;13.40;;;4.70;;
23567;SDS011;11962;50.838;4.430;2023-03-11T07:18:46;9.35;;;4.00;;
23567;SDS011;11962;50.838;4.430;2023-03-11T07:21:13;11.25;;;4.53;;
23567;SDS011;11962;50.838;4.430;2023-03-11T07:23:40;9.65;;;4.32;;
23567;SDS011;11962;50.838;4.430;2023-03-11T07:26:08;8.70;;;4.30;;
23567;SDS011;11962;50.838;4.430;2023-03-11T07:28:35;11.38;;;4.25;;
23567;SDS011;11962;50.838;4.430;2023-03-11T07:31:08;8.35;;;4.50;;
23567;SDS011;11962;50.838;4.430;2023-03-11T07:33:38;12.35;;;4.78;;
23567;SDS011;11962;50.838;4.430;2023-03-11T07:36:05;9.10;;;4.32;;
23567;SDS011;11962;50.838;4.430;2023-03-11T07:38:31;7.45;;;4.18;;
23567;SDS011;11962;50.838;4.430;2023-03-11T07:40:57;9.75;;;4.30;;
23567;SDS011;11962;50.838;4.430;2023-03-11T07:43:40;10.35;;;4.82;;
23567;SDS011;11962;50.838;4.430;2023-03-11T07:46:10;14.05;;;4.90;;
23567;SDS011;11962;50.838;4.430;2023-03-11T07:48:40;12.38;;;4.70;;
23567;SDS011;11962;50.838;4.430;2023-03-11T07:51:06;9.75;;;5.00;;
23567;SDS011;11962;50.838;4.430;2023-03-11T07:53:37;14.68;;;5.07;;
23567;SDS011;11962;50.838;4.430;2023-03-11T07:56:07;9.90;;;4.32;;
23567;SDS011;11962;50.838;4.430;2023-03-11T07:58:35;14.10;;;5.03;;
23567;SDS011;11962;50.838;4.430;2023-03-11T08:01:05;11.60;;;5.45;;
23567;SDS011;11962;50.838;4.430;2023-03-11T08:03:35;12.43;;;5.38;;
23567;SDS011;11962;50.838;4.430;2023-03-11T08:06:02;9.68;;;5.00;;
23567;SDS011;11962;50.838;4.430;2023-03-11T08:08:35;14.55;;;5.15;;
23567;SDS011;11962;50.838;4.430;2023-03-11T08:11:02;9.20;;;4.95;;
23567;SDS011;11962;50.838;4.430;2023-03-11T08:13:28;13.70;;;5.45;;
23567;SDS011;11962;50.838;4.430;2023-03-11T08:15:53;7.57;;;4.47;;
23567;SDS011;11962;50.838;4.430;2023-03-11T08:18:19;9.63;;;4.65;;
23567;SDS011;11962;50.838;4.430;2023-03-11T08:20:45;8.93;;;5.07;;
23567;SDS011;11962;50.838;4.430;2023-03-11T08:23:11;9.25;;;4.53;;
23567;SDS011;11962;50.838;4.430;2023-03-11T08:25:38;9.05;;;4.20;;
23567;SDS011;11962;50.838;4.430;2023-03-11T08:31:42;10.43;;;3.97;;
23567;SDS011;11962;50.838;4.430;2023-03-11T08:34:08;6.53;;;3.35;;
23567;SDS011;11962;50.838;4.430;2023-03-11T08:36:35;11.95;;;3.63;;
23567;SDS011;11962;50.838;4.430;2023-03-11T08:39:00;7.05;;;3.33;;
23567;SDS011;11962;50.838;4.430;2023-03-11T08:41:27;7.72;;;3.10;;
23567;SDS011;11962;50.838;4.430;2023-03-11T08:43:52;6.88;;;3.08;;
23567;SDS011;11962;50.838;4.430;2023-03-11T08:46:25;7.53;;;2.58;;
23567;SDS011;11962;50.838;4.430;2023-03-11T08:48:52;8.30;;;2.78;;
23567;SDS011;11962;50.838;4.430;2023-03-11T08:51:18;6.47;;;2.40;;
23567;SDS011;11962;50.838;4.430;2023-03-11T08:53:44;4.20;;;1.80;;
23567;SDS011;11962;50.838;4.430;2023-03-11T08:56:10;6.38;;;1.70;;
23567;SDS011;11962;50.838;4.430;2023-03-11T08:58:51;5.88;;;1.30;;
23567;SDS011;11962;50.838;4.430;2023-03-11T09:01:17;4.65;;;1.38;;
23567;SDS011;11962;50.838;4.430;2023-03-11T09:03:44;6.78;;;1.55;;
23567;SDS011;11962;50.838;4.430;2023-03-11T09:06:11;4.28;;;1.48;;
23567;SDS011;11962;50.838;4.430;2023-03-11T09:08:39;6.88;;;1.73;;
23567;SDS011;11962;50.838;4.430;2023-03-11T09:11:05;5.45;;;1.60;;
23567;SDS011;11962;50.838;4.430;2023-03-11T09:13:31;3.47;;;1.42;;
23567;SDS011;11962;50.838;4.430;2023-03-11T09:15:57;3.67;;;1.00;;
23567;SDS011;11962;50.838;4.430;2023-03-11T09:18:23;3.80;;;1.17;;
23567;SDS011;11962;50.838;4.430;2023-03-11T09:20:48;3.75;;;1.10;;
23567;SDS011;11962;50.838;4.430;2023-03-11T09:23:16;3.40;;;1.30;;
23567;SDS011;11962;50.838;4.430;2023-03-11T09:25:42;5.97;;;1.48;;
23567;SDS011;11962;50.838;4.430;2023-03-11T09:28:08;4.07;;;1.38;;
23567;SDS011;11962;50.838;4.430;2023-03-11T09:30:34;5.50;;;1.17;;
23567;SDS011;11962;50.838;4.430;2023-03-11T09:33:00;5.85;;;1.05;;
23567;SDS011;11962;50.838;4.430;2023-03-11T09:35:25;3.20;;;0.73;;
23567;SDS011;11962;50.838;4.430;2023-03-11T09:37:51;3.88;;;1.17;;
23567;SDS011;11962;50.838;4.430;2023-03-11T09:40:18;3.00;;;0.93;;
23567;SDS011;11962;50.838;4.430;2023-03-11T09:45:30;3.58;;;1.13;;
23567;SDS011;11962;50.838;4.430;2023-03-11T09:50:30;4.80;;;1.23;;
23567;SDS011;11962;50.838;4.430;2023-03-11T09:53:18;2.95;;;1.20;;
23567;SDS011;11962;50.838;4.430;2023-03-11T10:01:16;5.40;;;1.20;;
23567;SDS011;11962;50.838;4.430;2023-03-11T10:03:49;4.15;;;1.15;;
23567;SDS011;11962;50.838;4.430;2023-03-11T10:06:23;4.25;;;1.35;;
23567;SDS011;11962;50.838;4.430;2023-03-11T10:11:40;3.30;;;1.10;;
23567;SDS011;11962;50.838;4.430;2023-03-11T10:20:26;3.38;;;0.95;;
23567;SDS011;11962;50.838;4.430;2023-03-11T10:22:56;5.60;;;1.20;;
23567;SDS011;11962;50.838;4.430;2023-03-11T10:28:18;4.95;;;1.15;;
23567;SDS011;11962;50.838;4.430;2023-03-11T10:31:03;5.15;;;1.10;;
23567;SDS011;11962;50.838;4.430;2023-03-11T10:33:47;4.47;;;1.33;;
23567;SDS011;11962;50.838;4.430;2023-03-11T10:36:20;4.20;;;1.45;;
23567;SDS011;11962;50.838;4.430;2023-03-11T10:38:50;3.05;;;1.08;;
23567;SDS011;11962;50.838;4.430;2023-03-11T10:41:22;5.13;;;1.40;;
23567;SDS011;11962;50.838;4.430;2023-03-11T10:46:59;5.22;;;1.15;;
23567;SDS011;11962;50.838;4.430;2023-03-11T10:49:26;5.15;;;1.42;;
23567;SDS011;11962;50.838;4.430;2023-03-11T10:51:52;4.30;;;1.23;;
23567;SDS011;11962;50.838;4.430;2023-03-11T10:56:53;7.75;;;1.58;;
23567;SDS011;11962;50.838;4.430;2023-03-11T10:59:33;5.03;;;1.00;;
23567;SDS011;11962;50.838;4.430;2023-03-11T11:02:28;6.78;;;1.60;;
23567;SDS011;11962;50.838;4.430;2023-03-11T11:05:05;5.85;;;1.60;;
23567;SDS011;11962;50.838;4.430;2023-03-11T11:08:08;3.72;;;1.42;;
23567;SDS011;11962;50.838;4.430;2023-03-11T11:10:48;4.22;;;1.20;;
23567;SDS011;11962;50.838;4.430;2023-03-11T11:13:20;7.05;;;1.40;;
23567;SDS011;11962;50.838;4.430;2023-03-11T11:18:25;10.35;;;1.52;;
23567;SDS011;11962;50.838;4.430;2023-03-11T11:20:56;7.47;;;2.17;;
23567;SDS011;11962;50.838;4.430;2023-03-11T11:23:40;5.20;;;2.00;;
23567;SDS011;11962;50.838;4.430;2023-03-11T11:26:27;5.95;;;2.00;;
23567;SDS011;11962;50.838;4.430;2023-03-11T11:31:37;9.00;;;2.13;;
23567;SDS011;11962;50.838;4.430;2023-03-11T11:36:59;5.60;;;1.85;;
23567;SDS011;11962;50.838;4.430;2023-03-11T11:39:29;6.25;;;1.92;;
23567;SDS011;11962;50.838;4.430;2023-03-11T11:42:07;7.60;;;2.13;;
23567;SDS011;11962;50.838;4.430;2023-03-11T11:44:35;7.18;;;2.33;;
23567;SDS011;11962;50.838;4.430;2023-03-11T11:47:23;10.02;;;2.40;;
23567;SDS011;11962;50.838;4.430;2023-03-11T11:50:15;6.10;;;2.30;;
23567;SDS011;11962;50.838;4.430;2023-03-11T11:53:00;8.20;;;2.40;;
23567;SDS011;11962;50.838;4.430;2023-03-11T11:55:40;8.23;;;2.15;;
23567;SDS011;11962;50.838;4.430;2023-03-11T11:58:12;8.75;;;1.75;;
23567;SDS011;11962;50.838;4.430;2023-03-11T12:03:52;5.22;;;2.00;;
23567;SDS011;11962;50.838;4.430;2023-03-11T12:09:13;8.32;;;1.95;;
23567;SDS011;11962;50.838;4.430;2023-03-11T12:12:13;8.57;;;2.30;;
23567;SDS011;11962;50.838;4.430;2023-03-11T12:15:15;5.10;;;1.85;;
23567;SDS011;11962;50.838;4.430;2023-03-11T12:20:54;9.05;;;2.53;;
23567;SDS011;11962;50.838;4.430;2023-03-11T12:31:19;8.90;;;3.58;;
23567;SDS011;11962;50.838;4.430;2023-03-11T12:33:55;7.15;;;1.80;;
23567;SDS011;11962;50.838;4.430;2023-03-11T12:36:29;4.30;;;1.65;;
23567;SDS011;11962;50.838;4.430;2023-03-11T12:39:06;5.22;;;1.65;;
23567;SDS011;11962;50.838;4.430;2023-03-11T12:41:44;7.25;;;1.83;;
23567;SDS011;11962;50.838;4.430;2023-03-11T12:44:21;7.57;;;1.92;;
23567;SDS011;11962;50.838;4.430;2023-03-11T12:53:15;8.32;;;2.10;;
23567;SDS011;11962;50.838;4.430;2023-03-11T12:55:54;7.05;;;1.60;;
23567;SDS011;11962;50.838;4.430;2023-03-11T13:01:14;6.82;;;1.88;;
23567;SDS011;11962;50.838;4.430;2023-03-11T13:03:48;6.40;;;1.80;;
23567;SDS011;11962;50.838;4.430;2023-03-11T13:15:50;6.35;;;2.08;;
23567;SDS011;11962;50.838;4.430;2023-03-11T13:18:29;4.57;;;1.65;;
23567;SDS011;11962;50.838;4.430;2023-03-11T13:21:00;10.75;;;2.00;;
23567;SDS011;11962;50.838;4.430;2023-03-11T13:23:28;5.75;;;1.60;;
23567;SDS011;11962;50.838;4.430;2023-03-11T13:26:08;4.68;;;1.58;;
23567;SDS011;11962;50.838;4.430;2023-03-11T13:29:03;5.30;;;1.70;;
23567;SDS011;11962;50.838;4.430;2023-03-11T13:37:57;8.48;;;1.60;;
23567;SDS011;11962;50.838;4.430;2023-03-11T13:40:59;3.00;;;1.20;;
23567;SDS011;11962;50.838;4.430;2023-03-11T13:45:55;8.02;;;1.92;;
23567;SDS011;11962;50.838;4.430;2023-03-11T13:48:38;5.90;;;1.80;;
23567;SDS011;11962;50.838;4.430;2023-03-11T13:51:23;6.00;;;1.75;;
23567;SDS011;11962;50.838;4.430;2023-03-11T13:56:50;10.43;;;2.47;;
23567;SDS011;11962;50.838;4.430;2023-03-11T14:01:58;5.95;;;2.33;;
23567;SDS011;11962;50.838;4.430;2023-03-11T14:04:34;11.35;;;2.17;;
23567;SDS011;11962;50.838;4.430;2023-03-11T14:10:08;9.02;;;2.08;;
23567;SDS011;11962;50.838;4.430;2023-03-11T14:12:46;5.53;;;1.70;;
23567;SDS011;11962;50.838;4.430;2023-03-11T14:15:22;6.68;;;1.98;;
23567;SDS011;11962;50.838;4.430;2023-03-11T14:20:57;7.70;;;2.42;;
23567;SDS011;11962;50.838;4.430;2023-03-11T14:23:25;4.50;;;1.45;;
23567;SDS011;11962;50.838;4.430;2023-03-11T14:25:59;4.97;;;1.60;;
23567;SDS011;11962;50.838;4.430;2023-03-11T14:28:26;7.53;;;1.90;;
23567;SDS011;11962;50.838;4.430;2023-03-11T14:33:36;6.82;;;1.73;;
23567;SDS011;11962;50.838;4.430;2023-03-11T14:36:03;5.07;;;1.77;;
23567;SDS011;11962;50.838;4.430;2023-03-11T14:38:40;6.07;;;1.80;;
23567;SDS011;11962;50.838;4.430;2023-03-11T14:41:09;5.63;;;1.52;;
23567;SDS011;11962;50.838;4.430;2023-03-11T14:43:39;6.75;;;1.90;;
23567;SDS011;11962;50.838;4.430;2023-03-11T14:46:09;6.72;;;1.80;;
23567;SDS011;11962;50.838;4.430;2023-03-11T14:48:46;7.63;;;1.77;;
23567;SDS011;11962;50.838;4.430;2023-03-11T14:51:14;4.70;;;1.80;;
23567;SDS011;11962;50.838;4.430;2023-03-11T14:56:12;5.43;;;1.45;;
23567;SDS011;11962;50.838;4.430;2023-03-11T14:58:46;11.13;;;1.70;;
23567;SDS011;11962;50.838;4.430;2023-03-11T15:01:25;8.82;;;1.35;;
23567;SDS011;11962;50.838;4.430;2023-03-11T15:06:25;3.67;;;1.70;;
23567;SDS011;11962;50.838;4.430;2023-03-11T15:09:06;6.03;;;1.58;;
23567;SDS011;11962;50.838;4.430;2023-03-11T15:11:48;8.18;;;1.92;;
23567;SDS011;11962;50.838;4.430;2023-03-11T15:17:50;4.53;;;1.50;;
23567;SDS011;11962;50.838;4.430;2023-03-11T15:20:30;6.70;;;1.50;;
23567;SDS011;11962;50.838;4.430;2023-03-11T15:22:58;3.78;;;1.45;;
23567;SDS011;11962;50.838;4.430;2023-03-11T15:25:27;4.63;;;1.48;;
23567;SDS011;11962;50.838;4.430;2023-03-11T15:27:55;4.55;;;1.58;;
23567;SDS011;11962;50.838;4.430;2023-03-11T15:32:56;4.32;;;1.50;;
23567;SDS011;11962;50.838;4.430;2023-03-11T15:35:23;6.20;;;1.65;;
23567;SDS011;11962;50.838;4.430;2023-03-11T15:38:10;6.47;;;1.58;;
23567;SDS011;11962;50.838;4.430;2023-03-11T15:40:52;7.53;;;1.50;;
23567;SDS011;11962;50.838;4.430;2023-03-11T15:43:29;6.60;;;1.80;;
23567;SDS011;11962;50.838;4.430;2023-03-11T15:46:09;4.72;;;1.58;;
23567;SDS011;11962;50.838;4.430;2023-03-11T15:48:50;7.93;;;1.70;;
23567;SDS011;11962;50.838;4.430;2023-03-11T15:51:17;4.75;;;1.80;;
23567;SDS011;11962;50.838;4.430;2023-03-11T15:53:44;7.53;;;1.83;;
23567;SDS011;11962;50.838;4.430;2023-03-11T15:56:11;4.53;;;1.55;;
23567;SDS011;11962;50.838;4.430;2023-03-11T15:58:42;6.05;;;1.45;;
23567;SDS011;11962;50.838;4.430;2023-03-11T16:01:08;8.85;;;1.42;;
23567;SDS011;11962;50.838;4.430;2023-03-11T16:03:35;2.47;;;1.33;;
23567;SDS011;11962;50.838;4.430;2023-03-11T16:06:02;5.40;;;1.55;;
23567;SDS011;11962;50.838;4.430;2023-03-11T16:08:28;5.93;;;1.60;;
23567;SDS011;11962;50.838;4.430;2023-03-11T16:10:58;6.20;;;1.55;;
23567;SDS011;11962;50.838;4.430;2023-03-11T16:13:24;8.25;;;1.58;;
23567;SDS011;11962;50.838;4.430;2023-03-11T16:15:50;4.63;;;1.63;;
23567;SDS011;11962;50.838;4.430;2023-03-11T16:18:16;5.43;;;1.30;;
23567;SDS011;11962;50.838;4.430;2023-03-11T16:23:32;5.07;;;1.40;;
23567;SDS011;11962;50.838;4.430;2023-03-11T16:26:03;8.20;;;1.48;;
23567;SDS011;11962;50.838;4.430;2023-03-11T16:28:32;5.65;;;1.80;;
23567;SDS011;11962;50.838;4.430;2023-03-11T16:30:58;4.68;;;1.60;;
23567;SDS011;11962;50.838;4.430;2023-03-11T16:33:23;7.53;;;1.80;;
23567;SDS011;11962;50.838;4.430;2023-03-11T16:35:50;6.32;;;2.20;;
23567;SDS011;11962;50.838;4.430;2023-03-11T16:38:15;3.75;;;1.60;;
23567;SDS011;11962;50.838;4.430;2023-03-11T16:40:43;2.87;;;1.40;;
23567;SDS011;11962;50.838;4.430;2023-03-11T16:43:21;7.50;;;1.52;;
23567;SDS011;11962;50.838;4.430;2023-03-11T16:45:47;5.05;;;1.67;;
23567;SDS011;11962;50.838;4.430;2023-03-11T16:48:13;9.65;;;2.35;;
23567;SDS011;11962;50.838;4.430;2023-03-11T16:50:49;8.93;;;3.30;;
23567;SDS011;11962;50.838;4.430;2023-03-11T16:53:14;13.30;;;2.15;;
23567;SDS011;11962;50.838;4.430;2023-03-11T16:55:43;8.18;;;2.25;;
23567;SDS011;11962;50.838;4.430;2023-03-11T16:58:10;8.48;;;2.00;;
23567;SDS011;11962;50.838;4.430;2023-03-11T17:00:36;3.83;;;1.50;;
23567;SDS011;11962;50.838;4.430;2023-03-11T17:03:04;7.05;;;2.17;;
23567;SDS011;11962;50.838;4.430;2023-03-11T17:05:31;6.88;;;2.53;;
23567;SDS011;11962;50.838;4.430;2023-03-11T17:07:57;5.15;;;1.60;;
23567;SDS011;11962;50.838;4.430;2023-03-11T17:10:28;6.25;;;1.45;;
23567;SDS011;11962;50.838;4.430;2023-03-11T17:13:06;6.43;;;1.83;;
23567;SDS011;11962;50.838;4.430;2023-03-11T17:15:33;5.33;;;1.90;;